createdAt,value
2022-09-11T00:00:04.754Z,58.94
2022-09-11T00:02:39.335Z,59.15
2022-09-11T00:05:05.739Z,58.95
2022-09-11T00:07:32.054Z,59.08
2022-09-11T00:09:58.366Z,58.70
2022-09-11T00:12:24.703Z,58.92
2022-09-11T00:14:51.732Z,58.61
2022-09-11T00:17:18.303Z,59.02
2022-09-11T00:19:44.641Z,59.01
2022-09-11T00:22:11.472Z,58.92
2022-09-11T00:24:37.786Z,58.76
2022-09-11T00:27:04.100Z,58.65
2022-09-11T00:29:30.901Z,58.81
2022-09-11T00:31:57.733Z,58.97
2022-09-11T00:34:24.058Z,58.92
2022-09-11T00:36:52.232Z,58.87
2022-09-11T00:39:18.574Z,58.87
2022-09-11T00:41:46.079Z,58.88
2022-09-11T00:44:12.598Z,58.88
2022-09-11T00:46:40.443Z,58.90
2022-09-11T00:49:14.394Z,58.80
2022-09-11T00:51:41.173Z,58.92
2022-09-11T00:54:08.803Z,58.82
2022-09-11T00:56:35.916Z,58.84
2022-09-11T00:59:02.254Z,58.86
2022-09-11T01:01:28.578Z,58.82
2022-09-11T01:03:56.013Z,58.59
2022-09-11T01:06:22.610Z,58.80
2022-09-11T01:08:49.322Z,58.79
2022-09-11T01:11:28.170Z,58.63
2022-09-11T01:13:54.426Z,58.71
2022-09-11T01:16:27.737Z,58.76
2022-09-11T01:19:12.767Z,58.70
2022-09-11T01:21:52.196Z,58.81
2022-09-11T01:24:41.505Z,58.82
2022-09-11T01:27:10.398Z,58.87
2022-09-11T01:29:39.877Z,58.99
2022-09-11T01:32:11.658Z,58.95
2022-09-11T01:35:01.845Z,58.78
2022-09-11T01:37:31.175Z,58.66
2022-09-11T01:39:59.654Z,58.85
2022-09-11T01:42:26.003Z,58.86
2022-09-11T01:44:53.414Z,58.85
2022-09-11T01:47:19.762Z,58.61
2022-09-11T01:49:50.901Z,58.66
2022-09-11T01:52:27.986Z,58.57
2022-09-11T01:54:56.846Z,58.83
2022-09-11T01:57:43.742Z,58.82
2022-09-11T02:00:11.549Z,58.51
2022-09-11T02:02:52.386Z,58.51
2022-09-11T02:05:20.963Z,58.59
2022-09-11T02:07:58.259Z,58.81
2022-09-11T02:10:30.193Z,58.85
2022-09-11T02:12:58.125Z,58.90
2022-09-11T02:15:25.753Z,58.88
2022-09-11T02:17:58.202Z,58.83
2022-09-11T02:20:28.536Z,58.75
2022-09-11T02:22:54.895Z,58.47
2022-09-11T02:25:23.535Z,58.53
2022-09-11T02:27:54.550Z,58.87
2022-09-11T02:30:21.209Z,58.81
2022-09-11T02:32:47.655Z,58.59
2022-09-11T02:35:16.224Z,58.56
2022-09-11T02:37:45.981Z,58.56
2022-09-11T02:40:20.249Z,58.61
2022-09-11T02:42:56.799Z,58.79
2022-09-11T02:45:32.474Z,58.81
2022-09-11T02:48:05.757Z,58.56
2022-09-11T02:50:39.290Z,58.56
2022-09-11T02:53:11.483Z,58.55
2022-09-11T02:55:51.025Z,58.74
2022-09-11T02:58:26.884Z,58.79
2022-09-11T03:01:00.602Z,58.64
2022-09-11T03:03:27.082Z,58.63
2022-09-11T03:05:53.409Z,58.83
2022-09-11T03:08:20.351Z,58.46
2022-09-11T03:10:49.886Z,58.66
2022-09-11T03:13:16.744Z,58.96
2022-09-11T03:15:44.719Z,58.61
2022-09-11T03:18:15.598Z,58.52
2022-09-11T03:20:46.899Z,58.52
2022-09-11T03:23:13.453Z,58.69
2022-09-11T03:25:40.692Z,58.89
2022-09-11T03:28:10.377Z,59.09
2022-09-11T03:31:54.558Z,58.54
2022-09-11T03:34:17.999Z,58.29
2022-09-11T03:36:45.803Z,58.42
2022-09-11T03:39:13.458Z,58.40
2022-09-11T03:41:39.790Z,58.45
2022-09-11T03:44:06.144Z,58.38
2022-09-11T03:46:32.970Z,58.45
2022-09-11T03:48:59.737Z,58.56
2022-09-11T03:51:28.875Z,58.42
2022-09-11T03:53:55.409Z,58.47
2022-09-11T03:56:22.134Z,58.60
2022-09-11T03:58:48.947Z,58.81
2022-09-11T04:01:15.684Z,58.50
2022-09-11T04:03:42.605Z,58.45
2022-09-11T04:06:14.791Z,58.52
2022-09-11T04:08:41.298Z,58.68
2022-09-11T04:11:11.465Z,58.50
2022-09-11T04:13:38.714Z,58.50
2022-09-11T04:16:13.839Z,58.46
2022-09-11T04:18:41.516Z,58.70
2022-09-11T04:21:08.525Z,58.58
2022-09-11T04:23:35.054Z,58.44
2022-09-11T04:26:01.411Z,58.41
2022-09-11T04:28:28.386Z,58.74
2022-09-11T04:30:54.847Z,58.57
2022-09-11T04:33:21.797Z,58.77
2022-09-11T04:35:48.341Z,58.72
2022-09-11T04:38:15.267Z,58.47
2022-09-11T04:40:41.671Z,58.51
2022-09-11T04:43:08.093Z,58.41
2022-09-11T04:45:36.315Z,58.39
2022-09-11T04:48:04.254Z,58.94
2022-09-11T04:50:31.493Z,58.63
2022-09-11T04:53:12.154Z,58.72
2022-09-11T04:55:38.515Z,58.72
2022-09-11T04:58:05.583Z,58.78
2022-09-11T05:00:33.304Z,58.56
2022-09-11T05:02:59.913Z,58.45
2022-09-11T05:05:26.583Z,58.61
2022-09-11T05:07:52.918Z,58.56
2022-09-11T05:10:20.127Z,58.59
2022-09-11T05:12:47.039Z,58.59
2022-09-11T05:15:13.516Z,58.48
2022-09-11T05:17:40.266Z,58.62
2022-09-11T05:20:11.882Z,58.71
2022-09-11T05:22:38.564Z,58.69
2022-09-11T05:25:05.021Z,58.49
2022-09-11T05:27:31.380Z,58.61
2022-09-11T05:29:57.757Z,58.79
2022-09-11T05:32:24.151Z,58.77
2022-09-11T05:34:50.501Z,58.68
2022-09-11T05:37:19.811Z,58.79
2022-09-11T05:39:47.819Z,58.48
2022-09-11T05:42:15.748Z,58.57
2022-09-11T05:44:47.225Z,59.27
2022-09-11T05:47:14.283Z,58.55
2022-09-11T05:49:42.261Z,58.77
2022-09-11T05:52:10.242Z,58.63
2022-09-11T05:54:36.902Z,58.49
2022-09-11T05:57:07.811Z,58.59
2022-09-11T05:59:36.587Z,58.38
2022-09-11T06:02:03.030Z,58.40
2022-09-11T06:04:40.355Z,58.33
2022-09-11T06:07:07.934Z,58.59
2022-09-11T06:09:35.090Z,58.64
2022-09-11T06:12:01.737Z,58.75
2022-09-11T06:14:29.086Z,58.86
2022-09-11T06:16:57.131Z,58.94
2022-09-11T06:19:24.997Z,58.79
2022-09-11T06:21:51.408Z,58.82
2022-09-11T06:24:28.233Z,58.63
2022-09-11T06:26:56.067Z,58.60
2022-09-11T06:29:23.562Z,58.80
2022-09-11T06:31:51.372Z,58.98
2022-09-11T06:34:21.005Z,58.48
2022-09-11T06:36:51.841Z,58.64
2022-09-11T06:39:20.422Z,58.61
2022-09-11T06:41:46.794Z,58.37
2022-09-11T06:44:15.189Z,58.42
2022-09-11T06:46:41.583Z,58.40
2022-09-11T06:49:09.450Z,58.76
2022-09-11T06:51:55.742Z,59.02
2022-09-11T06:54:22.084Z,58.60
2022-09-11T06:56:48.412Z,58.77
2022-09-11T06:59:15.887Z,58.79
2022-09-11T07:01:42.487Z,58.68
2022-09-11T07:04:10.370Z,58.40
2022-09-11T07:06:38.513Z,58.60
2022-09-11T07:09:05.036Z,58.56
2022-09-11T07:11:43.786Z,58.33
2022-09-11T07:14:10.318Z,58.59
2022-09-11T07:16:39.484Z,58.38
2022-09-11T07:19:10.347Z,58.63
2022-09-11T07:21:38.427Z,58.41
2022-09-11T07:24:05.694Z,58.47
2022-09-11T07:26:36.386Z,58.80
2022-09-11T07:29:08.162Z,58.60
2022-09-11T07:31:34.615Z,58.48
2022-09-11T07:34:02.665Z,58.64
2022-09-11T07:36:30.110Z,58.42
2022-09-11T07:38:57.122Z,58.30
2022-09-11T07:41:31.569Z,58.71
2022-09-11T07:44:03.298Z,58.37
2022-09-11T07:46:32.839Z,58.47
2022-09-11T07:49:03.437Z,58.46
2022-09-11T07:51:30.227Z,58.27
2022-09-11T07:54:01.212Z,58.38
2022-09-11T07:56:31.141Z,58.55
2022-09-11T07:59:01.405Z,58.45
2022-09-11T08:01:29.649Z,58.94
2022-09-11T08:03:58.158Z,59.24
2022-09-11T08:06:27.189Z,58.79
2022-09-11T08:08:54.286Z,59.40
2022-09-11T08:11:21.312Z,59.08
2022-09-11T08:13:50.745Z,58.66
2022-09-11T08:16:19.358Z,59.05
2022-09-11T08:18:45.831Z,59.17
2022-09-11T08:21:13.933Z,59.38
2022-09-11T08:23:41.084Z,59.39
2022-09-11T08:26:12.981Z,59.87
2022-09-11T08:28:43.061Z,60.35
2022-09-11T08:31:09.883Z,59.84
2022-09-11T08:33:36.381Z,60.54
2022-09-11T08:36:06.393Z,60.40
2022-09-11T08:38:33.388Z,60.03
2022-09-11T08:41:07.972Z,60.33
2022-09-11T08:43:35.127Z,60.19
2022-09-11T08:46:04.701Z,60.33
2022-09-11T08:48:35.730Z,59.77
2022-09-11T08:51:02.062Z,59.38
2022-09-11T08:53:30.401Z,59.64
2022-09-11T08:56:00.316Z,60.21
2022-09-11T08:58:33.538Z,60.02
2022-09-11T09:01:13.943Z,60.37
2022-09-11T09:03:44.348Z,60.51
2022-09-11T09:06:21.170Z,59.86
2022-09-11T09:09:10.973Z,60.29
2022-09-11T09:11:42.681Z,59.60
2022-09-11T09:14:29.154Z,60.21
2022-09-11T09:16:58.380Z,60.44
2022-09-11T09:19:35.070Z,59.84
2022-09-11T09:22:03.418Z,59.23
2022-09-11T09:24:32.772Z,59.06
2022-09-11T09:26:59.377Z,59.81
2022-09-11T09:29:28.509Z,59.71
2022-09-11T09:32:01.976Z,59.23
2022-09-11T09:34:30.910Z,59.07
2022-09-11T09:37:04.277Z,59.60
2022-09-11T09:39:30.639Z,59.37
2022-09-11T09:42:05.082Z,59.45
2022-09-11T09:44:51.182Z,59.37
2022-09-11T09:47:17.500Z,59.12
2022-09-11T09:49:43.823Z,58.76
2022-09-11T09:52:17.025Z,59.02
2022-09-11T09:54:43.403Z,58.76
2022-09-11T09:57:10.520Z,58.83
2022-09-11T09:59:40.858Z,59.07
2022-09-11T10:02:07.736Z,59.45
2022-09-11T10:04:34.140Z,58.73
2022-09-11T10:07:14.090Z,59.17
2022-09-11T10:09:45.420Z,59.07
2022-09-11T10:12:21.687Z,59.20
2022-09-11T10:14:52.474Z,58.83
2022-09-11T10:17:19.429Z,58.95
2022-09-11T10:19:46.600Z,59.08
2022-09-11T10:22:29.067Z,59.49
2022-09-11T10:25:11.626Z,59.42
2022-09-11T10:27:52.572Z,59.19
2022-09-11T10:30:32.067Z,59.13
2022-09-11T10:33:02.710Z,59.11
2022-09-11T10:35:30.018Z,58.66
2022-09-11T10:38:08.815Z,58.61
2022-09-11T10:40:35.184Z,58.66
2022-09-11T10:43:01.503Z,59.07
2022-09-11T10:45:27.918Z,58.80
2022-09-11T10:47:54.276Z,58.77
2022-09-11T10:50:21.814Z,58.82
2022-09-11T10:53:03.390Z,58.73
2022-09-11T10:55:30.813Z,58.57
2022-09-11T10:57:59.337Z,58.75
2022-09-11T11:00:27.126Z,58.96
2022-09-11T11:02:56.114Z,58.67
2022-09-11T11:05:24.546Z,58.79
2022-09-11T11:08:06.420Z,58.49
2022-09-11T11:10:39.801Z,58.47
2022-09-11T11:13:11.039Z,58.56
2022-09-11T11:15:40.606Z,58.76
2022-09-11T11:18:18.935Z,58.47
2022-09-11T11:20:52.749Z,58.30
2022-09-11T11:23:45.517Z,57.99
2022-09-11T11:26:11.770Z,58.03
2022-09-11T11:28:41.028Z,57.60
2022-09-11T11:31:27.526Z,57.28
2022-09-11T11:34:03.011Z,56.83
2022-09-11T11:36:34.532Z,56.75
2022-09-11T11:39:02.027Z,56.54
2022-09-11T11:41:35.995Z,56.24
2022-09-11T11:44:02.806Z,56.05
2022-09-11T11:46:30.263Z,56.48
2022-09-11T11:48:58.724Z,56.27
2022-09-11T11:51:29.637Z,56.78
2022-09-11T11:54:03.715Z,56.56
2022-09-11T11:56:35.106Z,57.20
2022-09-11T11:59:04.117Z,57.21
2022-09-11T12:01:41.007Z,57.72
2022-09-11T12:04:26.383Z,58.37
2022-09-11T12:06:52.959Z,57.29
2022-09-11T12:09:19.476Z,56.75
2022-09-11T12:11:46.710Z,56.84
2022-09-11T12:14:26.121Z,57.33
2022-09-11T12:16:52.438Z,57.13
2022-09-11T12:19:19.840Z,57.14
2022-09-11T12:21:52.270Z,56.53
2022-09-11T12:24:19.799Z,56.56
2022-09-11T12:26:46.216Z,56.45
2022-09-11T12:29:13.715Z,56.13
2022-09-11T12:31:49.188Z,55.98
2022-09-11T12:34:18.712Z,55.46
2022-09-11T12:36:54.310Z,56.31
2022-09-11T12:39:24.808Z,55.87
2022-09-11T12:41:51.154Z,56.17
2022-09-11T12:44:43.609Z,57.02
2022-09-11T12:47:11.154Z,57.83
2022-09-11T12:49:37.537Z,58.90
2022-09-11T12:52:03.850Z,58.41
2022-09-11T12:54:39.985Z,62.94
2022-09-11T12:57:06.830Z,61.62
2022-09-11T12:59:38.523Z,60.73
2022-09-11T13:02:05.847Z,60.93
2022-09-11T13:04:32.297Z,61.47
2022-09-11T13:06:59.372Z,61.70
2022-09-11T13:09:29.446Z,62.49
2022-09-11T13:11:56.413Z,62.42
2022-09-11T13:14:29.761Z,62.51
2022-09-11T13:16:56.426Z,62.04
2022-09-11T13:19:22.838Z,62.29
2022-09-11T13:21:52.135Z,62.40
2022-09-11T13:24:25.487Z,62.21
2022-09-11T13:26:55.318Z,61.41
2022-09-11T13:29:26.664Z,62.03
2022-09-11T13:31:52.983Z,62.16
2022-09-11T13:34:20.095Z,62.07
2022-09-11T13:36:48.578Z,61.25
2022-09-11T13:39:14.898Z,61.73
2022-09-11T13:41:44.340Z,61.36
2022-09-11T13:44:25.320Z,61.48
2022-09-11T13:46:51.775Z,62.37
2022-09-11T13:49:18.034Z,61.98
2022-09-11T13:51:44.922Z,61.42
2022-09-11T13:54:18.311Z,61.91
2022-09-11T13:56:56.834Z,60.34
2022-09-11T13:59:39.818Z,60.32
2022-09-11T14:02:08.507Z,60.05
2022-09-11T14:04:38.465Z,60.98
2022-09-11T14:07:12.002Z,60.00
2022-09-11T14:09:38.324Z,60.65
2022-09-11T14:12:04.743Z,60.14
2022-09-11T14:14:31.253Z,60.07
2022-09-11T14:16:59.061Z,60.01
2022-09-11T14:19:26.174Z,59.66
2022-09-11T14:21:52.468Z,59.52
2022-09-11T14:24:24.520Z,59.06
2022-09-11T14:26:50.846Z,59.41
2022-09-11T14:29:20.104Z,59.27
2022-09-11T14:31:46.904Z,59.44
2022-09-11T14:34:25.347Z,60.16
2022-09-11T14:36:52.972Z,59.82
2022-09-11T14:39:22.442Z,59.74
2022-09-11T14:41:48.758Z,60.16
2022-09-11T14:44:15.603Z,58.78
2022-09-11T14:46:42.152Z,58.71
2022-09-11T14:49:09.433Z,58.67
2022-09-11T14:51:36.602Z,58.82
2022-09-11T14:54:02.986Z,58.37
2022-09-11T14:56:29.329Z,59.24
2022-09-11T14:58:55.672Z,58.97
2022-09-11T15:01:22.025Z,58.99
2022-09-11T15:03:48.460Z,59.00
2022-09-11T15:06:16.147Z,59.03
2022-09-11T15:08:42.955Z,59.04
2022-09-11T15:11:09.262Z,59.25
2022-09-11T15:13:35.802Z,59.26
2022-09-11T15:16:02.381Z,59.51
2022-09-11T15:18:28.726Z,59.50
2022-09-11T15:20:55.036Z,59.51
2022-09-11T15:23:21.376Z,59.42
2022-09-11T15:25:47.693Z,59.20
2022-09-11T15:28:14.151Z,59.30
2022-09-11T15:30:41.563Z,59.50
2022-09-11T15:33:07.874Z,59.28
2022-09-11T15:35:34.190Z,59.30
2022-09-11T15:38:00.517Z,59.38
2022-09-11T15:40:26.900Z,59.14
2022-09-11T15:42:53.676Z,59.33
2022-09-11T15:45:20.218Z,59.62
2022-09-11T15:47:47.180Z,59.42
2022-09-11T15:50:18.069Z,59.65
2022-09-11T15:52:44.886Z,59.55
2022-09-11T15:55:11.190Z,59.56
2022-09-11T15:57:39.128Z,59.41
2022-09-11T16:00:05.562Z,59.58
2022-09-11T16:02:38.324Z,59.51
2022-09-11T16:05:04.707Z,59.33
2022-09-11T16:07:31.032Z,59.47
2022-09-11T16:09:58.905Z,59.55
2022-09-11T16:12:25.735Z,59.66
2022-09-11T16:14:52.537Z,59.63
2022-09-11T16:17:20.569Z,59.57
2022-09-11T16:19:47.535Z,59.69
2022-09-11T16:22:13.873Z,59.65
2022-09-11T16:24:40.191Z,59.19
2022-09-11T16:27:07.018Z,59.19
2022-09-11T16:29:56.586Z,59.21
2022-09-11T16:32:27.993Z,59.59
2022-09-11T16:34:55.108Z,59.28
2022-09-11T16:37:21.423Z,59.35
2022-09-11T16:39:49.669Z,59.48
2022-09-11T16:42:16.380Z,59.56
2022-09-11T16:44:42.692Z,59.73
2022-09-11T16:47:09.750Z,59.86
2022-09-11T16:49:50.357Z,59.88
2022-09-11T16:52:43.888Z,59.77
2022-09-11T16:55:10.213Z,60.07
2022-09-11T16:57:37.224Z,60.05
2022-09-11T17:00:04.155Z,59.56
2022-09-11T17:02:30.490Z,59.66
2022-09-11T17:04:56.799Z,59.96
2022-09-11T17:07:23.830Z,59.99
2022-09-11T17:09:50.151Z,60.01
2022-09-11T17:12:17.837Z,60.35
2022-09-11T17:14:44.162Z,60.03
2022-09-11T17:17:10.574Z,60.16
2022-09-11T17:19:36.885Z,60.05
2022-09-11T17:22:03.856Z,60.17
2022-09-11T17:24:32.030Z,60.26
2022-09-11T17:26:58.398Z,60.37
2022-09-11T17:29:24.711Z,60.21
2022-09-11T17:32:05.047Z,59.90
2022-09-11T17:34:32.061Z,60.03
2022-09-11T17:36:58.713Z,59.59
2022-09-11T17:39:25.051Z,59.64
2022-09-11T17:41:51.410Z,59.47
2022-09-11T17:44:17.744Z,60.29
2022-09-11T17:46:44.149Z,60.61
2022-09-11T17:49:10.521Z,60.17
2022-09-11T17:51:36.851Z,59.96
2022-09-11T17:54:03.174Z,60.41
2022-09-11T17:56:32.483Z,61.09
2022-09-11T17:58:59.642Z,61.43
2022-09-11T18:01:26.102Z,61.80
2022-09-11T18:03:53.017Z,62.14
2022-09-11T18:06:25.315Z,62.62
2022-09-11T18:08:51.693Z,62.95
2022-09-11T18:11:18.325Z,62.28
2022-09-11T18:13:44.722Z,61.20
2022-09-11T18:16:11.764Z,60.79
2022-09-11T18:18:39.365Z,60.56
2022-09-11T18:21:09.035Z,60.04
2022-09-11T18:23:39.751Z,59.98
2022-09-11T18:26:07.130Z,60.07
2022-09-11T18:28:34.021Z,59.82
2022-09-11T18:31:00.769Z,59.95
2022-09-11T18:33:27.119Z,60.19
2022-09-11T18:35:53.434Z,60.33
2022-09-11T18:38:20.045Z,61.47
2022-09-11T18:40:46.558Z,61.76
2022-09-11T18:43:13.135Z,61.91
2022-09-11T18:45:41.463Z,61.78
2022-09-11T18:48:07.838Z,61.58
2022-09-11T18:53:17.877Z,61.30
2022-09-11T18:55:44.189Z,60.91
2022-09-11T18:58:10.519Z,61.21
2022-09-11T19:00:37.166Z,61.64
2022-09-11T19:03:03.605Z,61.58
2022-09-11T19:05:31.100Z,61.20
2022-09-11T19:08:00.069Z,61.04
2022-09-11T19:10:26.619Z,61.11
2022-09-11T19:12:53.035Z,61.14
2022-09-11T19:15:19.366Z,60.72
2022-09-11T19:17:47.902Z,60.64
2022-09-11T19:20:15.657Z,60.82
2022-09-11T19:22:41.995Z,60.68
2022-09-11T19:25:09.953Z,60.90
2022-09-11T19:27:37.221Z,60.57
2022-09-11T19:30:06.113Z,60.76
2022-09-11T19:32:32.621Z,60.52
2022-09-11T19:35:00.198Z,60.60
2022-09-11T19:37:28.188Z,60.75
2022-09-11T19:39:54.662Z,60.63
2022-09-11T19:42:21.006Z,60.76
2022-09-11T19:44:47.783Z,60.82
2022-09-11T19:47:14.111Z,60.51
2022-09-11T19:49:40.432Z,60.48
2022-09-11T19:52:08.026Z,60.57
2022-09-11T19:54:35.515Z,60.74
2022-09-11T19:57:02.449Z,60.53
2022-09-11T19:59:28.764Z,60.54
2022-09-11T20:01:55.169Z,60.69
2022-09-11T20:04:21.541Z,60.49
2022-09-11T20:09:30.381Z,60.38
2022-09-11T20:11:57.543Z,60.45
2022-09-11T20:14:23.883Z,60.69
2022-09-11T20:16:50.326Z,60.42
2022-09-11T20:19:17.263Z,60.35
2022-09-11T20:21:43.592Z,60.34
2022-09-11T20:24:09.941Z,60.67
2022-09-11T20:26:36.270Z,60.39
2022-09-11T20:29:03.925Z,60.59
2022-09-11T20:31:31.567Z,60.55
2022-09-11T20:33:58.095Z,60.29
2022-09-11T20:36:24.407Z,60.45
2022-09-11T20:38:51.284Z,60.61
2022-09-11T20:41:17.638Z,60.31
2022-09-11T20:43:44.089Z,60.15
2022-09-11T20:46:10.480Z,60.30
2022-09-11T20:48:36.802Z,60.12
2022-09-11T20:51:03.653Z,59.93
2022-09-11T20:53:29.987Z,60.22
2022-09-11T20:56:03.150Z,60.29
2022-09-11T20:58:29.479Z,60.07
2022-09-11T21:00:56.657Z,60.06
2022-09-11T21:03:23.076Z,60.43
2022-09-11T21:05:49.377Z,60.44
2022-09-11T21:08:15.694Z,60.62
2022-09-11T21:10:42.003Z,60.56
2022-09-11T21:13:10.758Z,60.13
2022-09-11T21:15:46.530Z,60.41
2022-09-11T21:18:12.867Z,60.23
2022-09-11T21:20:39.293Z,60.37
2022-09-11T21:23:05.878Z,60.45
2022-09-11T21:25:32.193Z,60.18
2022-09-11T21:27:58.523Z,60.23
2022-09-11T21:30:24.841Z,60.19
2022-09-11T21:32:51.558Z,60.26
2022-09-11T21:35:17.891Z,60.09
2022-09-11T21:37:44.239Z,60.14
2022-09-11T21:40:10.635Z,60.01
2022-09-11T21:42:36.981Z,59.98
2022-09-11T21:45:03.330Z,59.94
2022-09-11T21:47:29.645Z,59.83
2022-09-11T21:49:55.958Z,59.77
2022-09-11T21:52:22.291Z,60.22
2022-09-11T21:54:51.042Z,60.16
2022-09-11T21:57:17.414Z,60.25
2022-09-11T21:59:43.739Z,60.18
2022-09-11T22:02:11.622Z,60.44
2022-09-11T22:04:37.966Z,60.20
2022-09-11T22:07:04.805Z,60.33
2022-09-11T22:09:31.145Z,60.27
2022-09-11T22:11:59.866Z,59.99
2022-09-11T22:14:26.422Z,60.08
2022-09-11T22:16:52.741Z,60.06
2022-09-11T22:19:19.255Z,60.37
2022-09-11T22:21:45.574Z,60.21
2022-09-11T22:24:11.883Z,60.09
2022-09-11T22:26:38.338Z,60.03
2022-09-11T22:29:04.649Z,60.06
2022-09-11T22:31:31.040Z,59.99
2022-09-11T22:33:57.574Z,60.28
2022-09-11T22:36:24.794Z,60.26
2022-09-11T22:38:51.370Z,60.05
2022-09-11T22:41:17.697Z,60.35
2022-09-11T22:43:44.167Z,60.09
2022-09-11T22:46:10.762Z,60.06
2022-09-11T22:48:37.528Z,60.10
2022-09-11T22:51:04.774Z,60.06
2022-09-11T22:53:31.097Z,60.24
2022-09-11T22:55:57.460Z,60.11
2022-09-11T22:58:23.817Z,60.39
2022-09-11T23:00:50.439Z,60.12
2022-09-11T23:03:16.822Z,59.94
2022-09-11T23:06:01.652Z,60.14
2022-09-11T23:08:28.534Z,60.33
2022-09-11T23:10:54.899Z,60.40
2022-09-11T23:13:21.255Z,60.17
2022-09-11T23:15:47.675Z,60.30
2022-09-11T23:18:13.982Z,60.08
2022-09-11T23:20:40.387Z,60.31
2022-09-11T23:23:06.696Z,60.02
2022-09-11T23:25:34.181Z,60.44
2022-09-11T23:28:00.494Z,60.03
2022-09-11T23:30:26.812Z,60.07
2022-09-11T23:32:53.354Z,60.16
2022-09-11T23:35:19.653Z,60.29
2022-09-11T23:37:45.995Z,60.17
2022-09-11T23:40:12.344Z,60.22
2022-09-11T23:42:38.669Z,60.25
2022-09-11T23:45:07.463Z,60.23
2022-09-11T23:47:33.769Z,60.07
2022-09-11T23:50:00.085Z,60.08
2022-09-11T23:52:26.450Z,60.21
2022-09-11T23:54:52.770Z,60.19
2022-09-11T23:57:19.074Z,60.04
2022-09-11T23:59:45.389Z,59.99
